createdAt,value
2019-03-22T00:00:01.834Z,978.36
2019-03-22T00:01:01.823Z,978.30
2019-03-22T00:02:01.821Z,978.33
2019-03-22T00:03:01.839Z,978.23
2019-03-22T00:04:01.810Z,978.30
2019-03-22T00:05:01.809Z,978.25
2019-03-22T00:06:01.809Z,978.23
2019-03-22T00:07:01.788Z,978.23
2019-03-22T00:08:01.789Z,978.27
2019-03-22T00:09:01.777Z,978.19
2019-03-22T00:10:01.780Z,978.25
2019-03-22T00:11:01.776Z,978.18
2019-03-22T00:12:04.214Z,978.18
2019-03-22T00:13:01.762Z,978.21
2019-03-22T00:14:01.751Z,978.15
2019-03-22T00:15:01.746Z,978.22
2019-03-22T00:16:01.738Z,978.21
2019-03-22T00:17:01.741Z,978.19
2019-03-22T00:18:01.730Z,978.21
2019-03-22T00:19:01.754Z,978.19
2019-03-22T00:20:01.725Z,978.20
2019-03-22T00:21:01.715Z,978.24
2019-03-22T00:22:01.704Z,978.22
2019-03-22T00:23:01.696Z,978.19
2019-03-22T00:24:01.694Z,978.20
2019-03-22T00:25:01.694Z,978.20
2019-03-22T00:26:01.690Z,978.26
2019-03-22T00:27:01.691Z,978.14
2019-03-22T00:28:01.668Z,978.19
2019-03-22T00:29:01.666Z,978.19
2019-03-22T00:30:01.663Z,978.19
2019-03-22T00:31:01.651Z,978.14
2019-03-22T00:32:01.649Z,978.17
2019-03-22T00:33:01.645Z,978.16
2019-03-22T00:34:01.635Z,978.15
2019-03-22T00:35:01.634Z,978.14
2019-03-22T00:36:01.626Z,978.12
2019-03-22T00:37:01.619Z,978.09
2019-03-22T00:38:01.613Z,978.07
2019-03-22T00:39:01.609Z,978.08
2019-03-22T00:40:01.602Z,978.07
2019-03-22T00:41:01.600Z,978.06
2019-03-22T00:42:01.588Z,978.03
2019-03-22T00:43:01.586Z,978.06
2019-03-22T00:44:01.603Z,978.06
2019-03-22T00:45:01.569Z,978.05
2019-03-22T00:46:01.568Z,978.08
2019-03-22T00:47:01.559Z,978.06
2019-03-22T00:48:01.554Z,978.00
2019-03-22T00:49:01.558Z,978.00
2019-03-22T00:50:01.541Z,977.98
2019-03-22T00:51:01.540Z,978.00
2019-03-22T00:52:01.533Z,977.93
2019-03-22T00:53:01.532Z,977.95
2019-03-22T00:54:01.530Z,977.94
2019-03-22T00:55:01.516Z,977.95
2019-03-22T00:56:01.507Z,977.92
2019-03-22T00:57:01.503Z,977.92
2019-03-22T00:58:01.499Z,977.90
2019-03-22T00:59:01.529Z,977.91
2019-03-22T01:00:01.488Z,977.86
2019-03-22T01:01:01.483Z,977.90
2019-03-22T01:02:01.473Z,977.91
2019-03-22T01:03:01.466Z,977.85
2019-03-22T01:04:01.467Z,977.83
2019-03-22T01:05:01.456Z,977.86
2019-03-22T01:06:01.451Z,977.86
2019-03-22T01:07:01.442Z,977.89
2019-03-22T01:08:01.439Z,977.88
2019-03-22T01:09:01.429Z,977.89
2019-03-22T01:10:01.428Z,977.87
2019-03-22T01:11:01.417Z,977.89
2019-03-22T01:12:01.436Z,977.83
2019-03-22T01:13:01.405Z,977.81
2019-03-22T01:14:01.399Z,977.82
2019-03-22T01:15:01.396Z,977.84
2019-03-22T01:16:01.386Z,977.77
2019-03-22T01:17:01.429Z,977.84
2019-03-22T01:18:01.382Z,977.81
2019-03-22T01:19:01.371Z,977.77
2019-03-22T01:20:01.381Z,977.78
2019-03-22T01:21:01.363Z,977.80
2019-03-22T01:22:01.353Z,977.83
2019-03-22T01:23:01.345Z,977.85
2019-03-22T01:24:01.350Z,977.80
2019-03-22T01:25:01.335Z,977.77
2019-03-22T01:26:01.328Z,977.82
2019-03-22T01:27:01.332Z,977.76
2019-03-22T01:28:01.358Z,977.78
2019-03-22T01:29:01.308Z,977.78
2019-03-22T01:30:01.314Z,977.77
2019-03-22T01:31:01.300Z,977.76
2019-03-22T01:32:01.293Z,977.75
2019-03-22T01:33:01.288Z,977.74
2019-03-22T01:34:01.284Z,977.70
2019-03-22T01:35:01.279Z,977.70
2019-03-22T01:36:01.271Z,977.68
2019-03-22T01:37:01.262Z,977.63
2019-03-22T01:38:01.257Z,977.65
2019-03-22T01:39:01.293Z,977.68
2019-03-22T01:40:01.247Z,977.64
2019-03-22T01:41:01.269Z,977.67
2019-03-22T01:42:01.237Z,977.69
2019-03-22T01:43:01.228Z,977.68
2019-03-22T01:44:01.222Z,977.68
2019-03-22T01:45:01.248Z,977.69
2019-03-22T01:46:01.212Z,977.66
2019-03-22T01:47:01.231Z,977.59
2019-03-22T01:48:01.229Z,977.60
2019-03-22T01:49:01.191Z,977.58
2019-03-22T01:50:01.187Z,977.57
2019-03-22T01:51:01.199Z,977.61
2019-03-22T01:52:01.182Z,977.59
2019-03-22T01:53:01.169Z,977.60
2019-03-22T01:54:01.162Z,977.58
2019-03-22T01:55:01.158Z,977.60
2019-03-22T01:56:01.152Z,977.62
2019-03-22T01:57:01.144Z,977.63
2019-03-22T01:58:01.139Z,977.64
2019-03-22T01:59:01.132Z,977.60
2019-03-22T02:00:01.125Z,977.58
2019-03-22T02:01:01.119Z,977.60
2019-03-22T02:02:01.115Z,977.55
2019-03-22T02:03:01.122Z,977.57
2019-03-22T02:04:01.106Z,977.58
2019-03-22T02:05:01.120Z,977.57
2019-03-22T02:06:01.092Z,977.54
2019-03-22T02:07:01.089Z,977.53
2019-03-22T02:08:01.107Z,977.49
2019-03-22T02:09:01.075Z,977.51
2019-03-22T02:10:01.069Z,977.45
2019-03-22T02:11:01.059Z,977.47
2019-03-22T02:12:01.059Z,977.46
2019-03-22T02:13:01.080Z,977.43
2019-03-22T02:14:01.042Z,977.42
2019-03-22T02:15:01.036Z,977.37
2019-03-22T02:16:01.036Z,977.40
2019-03-22T02:17:01.024Z,977.37
2019-03-22T02:18:01.021Z,977.32
2019-03-22T02:19:01.012Z,977.41
2019-03-22T02:20:01.007Z,977.38
2019-03-22T02:21:01.020Z,977.38
2019-03-22T02:22:01.004Z,977.40
2019-03-22T02:23:00.987Z,977.39
2019-03-22T02:24:00.982Z,977.39
2019-03-22T02:25:00.977Z,977.41
2019-03-22T02:26:00.971Z,977.41
2019-03-22T02:27:00.964Z,977.42
2019-03-22T02:28:04.474Z,977.42
2019-03-22T02:29:00.954Z,977.48
2019-03-22T02:30:00.946Z,977.43
2019-03-22T02:31:00.942Z,977.50
2019-03-22T02:32:00.943Z,977.50
2019-03-22T02:33:00.928Z,977.46
2019-03-22T02:34:00.921Z,977.51
2019-03-22T02:35:00.914Z,977.51
2019-03-22T02:36:00.906Z,977.52
2019-03-22T02:37:00.906Z,977.47
2019-03-22T02:38:00.898Z,977.51
2019-03-22T02:39:00.925Z,977.48
2019-03-22T02:40:00.888Z,977.48
2019-03-22T02:41:00.886Z,977.47
2019-03-22T02:42:00.890Z,977.46
2019-03-22T02:43:00.865Z,977.49
2019-03-22T02:44:00.860Z,977.46
2019-03-22T02:45:00.858Z,977.43
2019-03-22T02:46:00.849Z,977.41
2019-03-22T02:47:00.843Z,977.43
2019-03-22T02:48:00.836Z,977.43
2019-03-22T02:49:00.834Z,977.45
2019-03-22T02:50:11.681Z,977.39
2019-03-22T02:51:00.815Z,977.38
2019-03-22T02:52:00.812Z,977.36
2019-03-22T02:53:00.822Z,977.32
2019-03-22T02:54:00.796Z,977.32
2019-03-22T02:55:00.790Z,977.32
2019-03-22T02:56:00.930Z,977.30
2019-03-22T02:57:00.798Z,977.30
2019-03-22T02:58:00.826Z,977.29
2019-03-22T02:59:00.766Z,977.30
2019-03-22T03:00:00.760Z,977.32
2019-03-22T03:01:00.794Z,977.33
2019-03-22T03:02:00.754Z,977.31
2019-03-22T03:03:00.760Z,977.32
2019-03-22T03:04:00.735Z,977.39
2019-03-22T03:05:00.729Z,977.34
2019-03-22T03:06:00.729Z,977.40
2019-03-22T03:07:00.726Z,977.39
2019-03-22T03:08:00.733Z,977.36
2019-03-22T03:09:00.711Z,977.36
2019-03-22T03:10:00.698Z,977.37
2019-03-22T03:11:00.707Z,977.34
2019-03-22T03:12:00.690Z,977.35
2019-03-22T03:13:00.692Z,977.30
2019-03-22T03:14:00.687Z,977.28
2019-03-22T03:15:00.700Z,977.28
2019-03-22T03:16:00.671Z,977.25
2019-03-22T03:17:00.664Z,977.26
2019-03-22T03:18:00.655Z,977.29
2019-03-22T03:19:00.728Z,977.26
2019-03-22T03:20:00.642Z,977.23
2019-03-22T03:21:00.637Z,977.25
2019-03-22T03:22:00.649Z,977.22
2019-03-22T03:23:00.642Z,977.24
2019-03-22T03:24:00.618Z,977.20
2019-03-22T03:25:00.608Z,977.20
2019-03-22T03:26:00.603Z,977.20
2019-03-22T03:27:00.596Z,977.22
2019-03-22T03:28:00.591Z,977.20
2019-03-22T03:29:00.589Z,977.20
2019-03-22T03:30:02.348Z,977.24
2019-03-22T03:31:00.592Z,977.27
2019-03-22T03:32:00.578Z,977.25
2019-03-22T03:33:00.575Z,977.23
2019-03-22T03:34:00.563Z,977.28
2019-03-22T03:35:01.123Z,977.23
2019-03-22T03:36:00.548Z,977.23
2019-03-22T03:37:00.537Z,977.21
2019-03-22T03:38:00.535Z,977.16
2019-03-22T03:39:00.563Z,977.20
2019-03-22T03:40:00.582Z,977.20
2019-03-22T03:41:00.518Z,977.14
2019-03-22T03:42:00.554Z,977.16
2019-03-22T03:43:00.531Z,977.16
2019-03-22T03:44:00.493Z,977.14
2019-03-22T03:45:00.686Z,977.15
2019-03-22T03:46:00.478Z,977.22
2019-03-22T03:47:00.472Z,977.21
2019-03-22T03:48:00.479Z,977.22
2019-03-22T03:49:00.462Z,977.24
2019-03-22T03:50:00.504Z,977.24
2019-03-22T03:51:00.448Z,977.25
2019-03-22T03:52:00.449Z,977.25
2019-03-22T03:53:00.439Z,977.31
2019-03-22T03:54:00.433Z,977.23
2019-03-22T03:55:00.568Z,977.27
2019-03-22T03:56:00.420Z,977.27
2019-03-22T03:57:00.415Z,977.25
2019-03-22T03:58:00.415Z,977.22
2019-03-22T03:59:00.408Z,977.23
2019-03-22T04:00:00.498Z,977.20
2019-03-22T04:01:00.406Z,977.19
2019-03-22T04:02:00.408Z,977.18
2019-03-22T04:03:00.415Z,977.22
2019-03-22T04:04:00.402Z,977.18
2019-03-22T04:05:00.488Z,977.20
2019-03-22T04:06:00.353Z,977.20
2019-03-22T04:07:00.427Z,977.20
2019-03-22T04:08:00.372Z,977.20
2019-03-22T04:09:00.367Z,977.22
2019-03-22T04:10:00.621Z,977.15
2019-03-22T04:11:00.363Z,977.19
2019-03-22T04:12:00.341Z,977.14
2019-03-22T04:13:00.381Z,977.16
2019-03-22T04:14:00.313Z,977.11
2019-03-22T04:15:00.483Z,977.14
2019-03-22T04:16:00.296Z,977.11
2019-03-22T04:17:00.287Z,977.17
2019-03-22T04:18:00.282Z,977.19
2019-03-22T04:19:00.278Z,977.18
2019-03-22T04:20:00.482Z,977.21
2019-03-22T04:21:00.311Z,977.19
2019-03-22T04:22:00.263Z,977.24
2019-03-22T04:23:00.292Z,977.22
2019-03-22T04:24:00.247Z,977.20
2019-03-22T04:25:00.530Z,977.23
2019-03-22T04:26:00.235Z,977.25
2019-03-22T04:27:00.231Z,977.24
2019-03-22T04:28:00.223Z,977.22
2019-03-22T04:29:07.174Z,977.22
2019-03-22T04:30:00.461Z,977.23
2019-03-22T04:31:00.197Z,977.28
2019-03-22T04:32:00.205Z,977.29
2019-03-22T04:33:00.187Z,977.32
2019-03-22T04:34:00.183Z,977.38
2019-03-22T04:35:00.411Z,977.39
2019-03-22T04:36:00.168Z,977.43
2019-03-22T04:37:00.202Z,977.42
2019-03-22T04:38:00.168Z,977.43
2019-03-22T04:39:00.148Z,977.43
2019-03-22T04:40:00.382Z,977.44
2019-03-22T04:41:00.145Z,977.48
2019-03-22T04:42:00.136Z,977.40
2019-03-22T04:43:00.142Z,977.47
2019-03-22T04:44:00.122Z,977.39
2019-03-22T04:45:00.332Z,977.45
2019-03-22T04:46:00.116Z,977.44
2019-03-22T04:47:00.102Z,977.44
2019-03-22T04:48:00.095Z,977.46
2019-03-22T04:49:00.090Z,977.44
2019-03-22T04:50:00.084Z,977.45
2019-03-22T04:51:00.080Z,977.44
2019-03-22T04:52:00.071Z,977.44
2019-03-22T04:53:00.077Z,977.45
2019-03-22T04:54:00.123Z,977.42
2019-03-22T04:55:00.053Z,977.43
2019-03-22T04:56:01.851Z,977.37
2019-03-22T04:57:00.043Z,977.37
2019-03-22T04:58:00.032Z,977.35
2019-03-22T04:59:00.025Z,977.33
2019-03-22T05:00:00.028Z,977.37
2019-03-22T05:01:00.015Z,977.35
2019-03-22T05:02:00.027Z,977.31
2019-03-22T05:03:00.000Z,977.33
2019-03-22T05:04:00.000Z,977.33
2019-03-22T05:05:00.109Z,977.31
2019-03-22T05:05:59.982Z,977.34
2019-03-22T05:06:59.975Z,977.33
2019-03-22T05:08:00.026Z,977.32
2019-03-22T05:08:59.967Z,977.32
2019-03-22T05:09:59.961Z,977.35
2019-03-22T05:10:59.951Z,977.40
2019-03-22T05:11:59.948Z,977.42
2019-03-22T05:12:59.972Z,977.46
2019-03-22T05:13:59.951Z,977.48
2019-03-22T05:14:59.930Z,977.50
2019-03-22T05:16:07.528Z,977.47
2019-03-22T05:17:53.005Z,977.52
2019-03-22T05:18:54.206Z,977.50
2019-03-22T05:20:45.942Z,977.53
2019-03-22T05:21:45.959Z,977.50
2019-03-22T05:23:39.336Z,977.48
2019-03-22T05:24:39.380Z,977.49
2019-03-22T05:26:33.425Z,977.45
2019-03-22T05:27:32.677Z,977.46
2019-03-22T05:29:30.563Z,977.47
2019-03-22T05:30:26.223Z,977.45
2019-03-22T05:32:19.953Z,977.46
2019-03-22T05:33:20.960Z,977.42
2019-03-22T05:34:21.494Z,977.44
2019-03-22T05:35:20.724Z,977.45
2019-03-22T05:36:20.706Z,977.46
2019-03-22T05:37:20.425Z,977.49
2019-03-22T05:38:20.741Z,977.45
2019-03-22T05:39:21.206Z,977.49
2019-03-22T05:40:20.936Z,977.46
2019-03-22T05:41:23.138Z,977.49
2019-03-22T05:42:20.735Z,977.51
2019-03-22T05:43:19.747Z,977.51
2019-03-22T05:44:19.850Z,977.53
2019-03-22T05:45:21.339Z,977.53
2019-03-22T05:46:21.215Z,977.46
2019-03-22T05:47:20.843Z,977.50
2019-03-22T05:48:20.736Z,977.50
2019-03-22T05:49:19.714Z,977.51
2019-03-22T05:50:21.730Z,977.52
2019-03-22T05:51:21.178Z,977.52
2019-03-22T05:52:20.288Z,977.54
2019-03-22T05:53:20.253Z,977.54
2019-03-22T05:54:19.732Z,977.54
2019-03-22T05:55:19.312Z,977.59
2019-03-22T05:56:19.289Z,977.58
2019-03-22T05:57:19.371Z,977.57
2019-03-22T05:58:19.284Z,977.64
2019-03-22T05:59:19.264Z,977.65
2019-03-22T06:00:19.256Z,977.61
2019-03-22T06:01:19.287Z,977.62
2019-03-22T06:02:19.302Z,977.61
2019-03-22T06:03:19.254Z,977.60
2019-03-22T06:04:19.237Z,977.61
2019-03-22T06:05:19.226Z,977.60
2019-03-22T06:06:19.259Z,977.63
2019-03-22T06:07:19.214Z,977.59
2019-03-22T06:08:20.789Z,977.60
2019-03-22T06:09:20.788Z,977.59
2019-03-22T06:10:19.191Z,977.61
2019-03-22T06:11:19.189Z,977.57
2019-03-22T06:12:19.188Z,977.60
2019-03-22T06:13:19.181Z,977.58
2019-03-22T06:14:19.228Z,977.63
2019-03-22T06:16:41.411Z,977.60
2019-03-22T06:17:51.161Z,977.65
2019-03-22T06:19:34.672Z,977.61
2019-03-22T06:20:34.239Z,977.65
2019-03-22T06:22:28.551Z,977.69
2019-03-22T06:23:28.045Z,977.75
2019-03-22T06:25:22.030Z,977.80
2019-03-22T06:26:21.461Z,977.76
2019-03-22T06:28:14.887Z,977.73
2019-03-22T06:29:14.833Z,977.74
2019-03-22T06:31:07.236Z,977.73
2019-03-22T06:32:08.750Z,977.77
2019-03-22T06:34:00.058Z,977.82
2019-03-22T06:35:01.080Z,977.76
2019-03-22T06:36:53.955Z,977.79
2019-03-22T06:37:52.860Z,977.80
2019-03-22T06:39:45.724Z,977.81
2019-03-22T06:40:45.732Z,977.74
2019-03-22T06:42:39.171Z,977.71
2019-03-22T06:43:39.134Z,977.76
2019-03-22T06:45:33.167Z,977.73
2019-03-22T06:46:32.993Z,977.74
2019-03-22T06:48:26.862Z,977.79
2019-03-22T06:49:25.831Z,977.83
2019-03-22T06:51:19.275Z,977.86
2019-03-22T06:52:18.757Z,977.84
2019-03-22T06:54:12.636Z,977.88
2019-03-22T06:55:12.210Z,977.83
2019-03-22T06:57:05.639Z,977.84
2019-03-22T06:58:05.598Z,977.81
2019-03-22T07:00:05.975Z,977.92
2019-03-22T07:00:57.518Z,977.95
2019-03-22T07:02:51.781Z,977.87
2019-03-22T07:03:51.275Z,977.93
2019-03-22T07:05:43.691Z,978.16
2019-03-22T07:06:44.629Z,978.26
2019-03-22T07:08:37.151Z,978.34
2019-03-22T07:09:37.522Z,978.39
2019-03-22T07:11:29.453Z,978.75
2019-03-22T07:12:29.256Z,978.50
2019-03-22T07:14:22.938Z,978.78
2019-03-22T07:15:22.944Z,978.61
2019-03-22T07:17:16.935Z,978.48
2019-03-22T07:18:16.892Z,978.56
2019-03-22T07:20:10.467Z,978.36
2019-03-22T07:21:10.428Z,978.44
2019-03-22T07:23:03.742Z,978.42
2019-03-22T07:24:03.333Z,978.44
2019-03-22T07:25:56.216Z,978.32
2019-03-22T07:26:56.663Z,978.31
2019-03-22T07:28:49.093Z,978.28
2019-03-22T07:29:49.566Z,978.33
2019-03-22T07:31:41.947Z,978.44
2019-03-22T07:32:41.539Z,978.56
2019-03-22T07:34:34.344Z,978.55
2019-03-22T07:35:34.863Z,978.55
2019-03-22T07:37:27.725Z,978.63
2019-03-22T07:38:28.206Z,978.49
2019-03-22T07:40:21.115Z,978.40
2019-03-22T07:41:20.599Z,978.41
2019-03-22T07:43:14.106Z,978.50
2019-03-22T07:44:14.551Z,978.45
2019-03-22T07:46:06.979Z,978.39
2019-03-22T07:47:06.958Z,978.45
2019-03-22T07:49:00.356Z,978.44
2019-03-22T07:49:59.857Z,978.45
2019-03-22T07:51:52.757Z,978.52
2019-03-22T07:52:53.272Z,978.66
2019-03-22T07:54:46.123Z,978.64
2019-03-22T07:55:45.624Z,978.62
2019-03-22T07:57:39.513Z,978.49
2019-03-22T07:58:38.830Z,978.45
2019-03-22T08:00:32.475Z,978.46
2019-03-22T08:01:32.389Z,978.52
2019-03-22T08:03:25.888Z,978.57
2019-03-22T08:04:26.306Z,978.57
2019-03-22T08:05:26.284Z,978.59
2019-03-22T08:06:25.419Z,978.64
2019-03-22T08:07:34.961Z,978.72
2019-03-22T08:09:18.863Z,978.89
2019-03-22T08:10:18.917Z,978.86
2019-03-22T08:12:13.260Z,979.01
2019-03-22T08:13:14.234Z,978.99
2019-03-22T08:15:08.320Z,978.97
2019-03-22T08:16:06.605Z,979.02
2019-03-22T08:17:59.485Z,979.00
2019-03-22T08:18:59.412Z,979.09
2019-03-22T08:20:52.370Z,979.07
2019-03-22T08:21:52.390Z,979.08
2019-03-22T08:23:45.341Z,979.11
2019-03-22T08:24:45.346Z,978.94
2019-03-22T08:26:38.136Z,979.08
2019-03-22T08:27:38.072Z,979.08
2019-03-22T08:29:32.248Z,979.04
2019-03-22T08:30:42.542Z,979.07
2019-03-22T08:32:25.200Z,979.18
2019-03-22T08:33:25.068Z,979.14
2019-03-22T08:35:19.058Z,979.33
2019-03-22T08:36:18.317Z,979.33
2019-03-22T08:38:12.131Z,979.43
2019-03-22T08:39:12.089Z,979.57
2019-03-22T08:41:05.607Z,979.42
2019-03-22T08:42:05.244Z,979.37
2019-03-22T08:43:58.446Z,979.32
2019-03-22T08:44:58.430Z,979.30
2019-03-22T08:46:51.802Z,979.36
2019-03-22T08:47:51.313Z,979.37
2019-03-22T08:49:45.031Z,979.62
2019-03-22T08:50:43.892Z,979.69
2019-03-22T08:52:37.254Z,979.58
2019-03-22T08:53:37.359Z,979.68
2019-03-22T08:55:30.487Z,979.63
2019-03-22T08:56:30.040Z,979.40
2019-03-22T08:58:23.861Z,979.44
2019-03-22T08:59:23.514Z,979.47
2019-03-22T09:01:17.251Z,979.72
2019-03-22T09:02:17.134Z,979.62
2019-03-22T09:04:10.676Z,979.63
2019-03-22T09:05:10.348Z,979.68
2019-03-22T09:07:03.513Z,979.65
2019-03-22T09:08:03.273Z,979.51
2019-03-22T09:09:56.426Z,979.55
2019-03-22T09:10:56.366Z,979.53
2019-03-22T09:12:49.363Z,979.67
2019-03-22T09:13:49.254Z,979.68
2019-03-22T09:15:42.278Z,979.60
2019-03-22T09:16:42.255Z,979.67
2019-03-22T09:18:35.089Z,979.69
2019-03-22T09:19:35.120Z,979.65
2019-03-22T09:21:28.079Z,979.53
2019-03-22T09:22:27.974Z,979.57
2019-03-22T09:24:21.465Z,979.48
2019-03-22T09:25:21.456Z,979.53
2019-03-22T09:27:14.879Z,979.46
2019-03-22T09:28:14.543Z,979.47
2019-03-22T09:30:07.746Z,979.30
2019-03-22T09:31:11.024Z,979.32
2019-03-22T09:33:00.652Z,979.36
2019-03-22T09:34:00.751Z,979.39
2019-03-22T09:35:53.665Z,979.23
2019-03-22T09:36:53.387Z,979.25
2019-03-22T09:38:46.444Z,979.26
2019-03-22T09:39:46.179Z,979.31
2019-03-22T09:41:39.522Z,979.30
2019-03-22T09:42:39.223Z,979.31
2019-03-22T09:44:42.898Z,979.36
2019-03-22T09:45:31.870Z,979.39
2019-03-22T09:47:25.775Z,979.51
2019-03-22T09:48:25.737Z,979.57
2019-03-22T09:50:19.118Z,979.65
2019-03-22T09:51:19.165Z,979.63
2019-03-22T09:53:12.011Z,979.64
2019-03-22T09:54:11.940Z,979.67
2019-03-22T09:56:05.447Z,979.65
2019-03-22T09:57:05.370Z,979.56
2019-03-22T09:58:58.700Z,979.58
2019-03-22T09:59:58.011Z,979.38
2019-03-22T10:01:51.315Z,978.34
2019-03-22T10:02:50.899Z,978.31
2019-03-22T10:04:44.746Z,978.30
2019-03-22T10:05:43.982Z,978.30
2019-03-22T10:07:37.139Z,978.21
2019-03-22T10:08:36.736Z,978.12
2019-03-22T10:10:30.006Z,978.08
2019-03-22T10:11:29.992Z,978.04
2019-03-22T10:13:23.444Z,977.95
2019-03-22T10:14:23.852Z,977.92
2019-03-22T10:16:16.932Z,977.88
2019-03-22T10:17:16.494Z,977.85
2019-03-22T10:19:10.348Z,977.81
2019-03-22T10:20:10.191Z,977.88
2019-03-22T10:22:03.256Z,977.83
2019-03-22T10:23:03.305Z,977.81
2019-03-22T10:24:56.214Z,977.79
2019-03-22T10:25:56.194Z,977.76
2019-03-22T10:27:49.055Z,977.72
2019-03-22T10:28:49.592Z,977.71
2019-03-22T10:30:44.052Z,977.74
2019-03-22T10:31:41.992Z,977.65
2019-03-22T10:32:41.844Z,977.69
2019-03-22T10:33:41.990Z,977.67
2019-03-22T10:34:42.495Z,977.67
2019-03-22T10:35:41.964Z,977.61
2019-03-22T10:36:42.516Z,977.60
2019-03-22T10:37:41.968Z,977.61
2019-03-22T10:38:42.510Z,977.56
2019-03-22T10:39:42.007Z,977.61
2019-03-22T10:40:42.593Z,977.67
2019-03-22T10:41:42.033Z,977.64
2019-03-22T10:42:42.101Z,977.65
2019-03-22T10:43:42.069Z,977.70
2019-03-22T10:44:42.611Z,977.71
2019-03-22T10:45:42.025Z,977.62
2019-03-22T10:46:42.153Z,977.64
2019-03-22T10:47:42.591Z,977.61
2019-03-22T10:48:42.137Z,977.60
2019-03-22T10:49:42.514Z,977.58
2019-03-22T10:50:42.095Z,977.54
2019-03-22T10:51:55.605Z,977.48
2019-03-22T10:52:42.087Z,977.51
2019-03-22T10:53:43.179Z,977.48
2019-03-22T10:54:42.657Z,977.50
2019-03-22T10:55:42.604Z,977.50
2019-03-22T10:56:42.900Z,977.43
2019-03-22T10:57:42.602Z,977.42
2019-03-22T10:58:42.131Z,977.41
2019-03-22T10:59:42.914Z,977.39
2019-03-22T11:00:42.642Z,977.35
2019-03-22T11:01:51.963Z,977.31
2019-03-22T11:02:43.387Z,977.28
2019-03-22T11:03:42.099Z,977.26
2019-03-22T11:04:42.173Z,977.28
2019-03-22T11:05:42.107Z,977.27
2019-03-22T11:06:42.671Z,977.23
2019-03-22T11:07:42.189Z,977.25
2019-03-22T11:08:42.707Z,977.24
2019-03-22T11:09:42.706Z,977.22
2019-03-22T11:10:42.728Z,977.22
2019-03-22T11:11:42.212Z,977.19
2019-03-22T11:12:43.260Z,977.16
2019-03-22T11:13:42.750Z,977.17
2019-03-22T11:14:45.611Z,977.18
2019-03-22T11:15:48.527Z,977.14
2019-03-22T11:16:42.113Z,977.19
2019-03-22T11:17:42.161Z,977.14
2019-03-22T11:18:42.681Z,977.17
2019-03-22T11:19:42.251Z,977.11
2019-03-22T11:20:41.967Z,977.12
2019-03-22T11:21:41.952Z,977.12
2019-03-22T11:22:42.260Z,977.06
2019-03-22T11:23:42.771Z,977.06
2019-03-22T11:24:42.914Z,977.04
2019-03-22T11:25:42.798Z,977.01
2019-03-22T11:26:42.316Z,976.99
2019-03-22T11:27:42.818Z,976.95
2019-03-22T11:28:42.960Z,976.96
2019-03-22T11:29:42.778Z,976.91
2019-03-22T11:30:43.338Z,976.92
2019-03-22T11:31:42.254Z,976.92
2019-03-22T11:32:42.540Z,976.91
2019-03-22T11:33:42.250Z,976.95
2019-03-22T11:34:41.862Z,976.93
2019-03-22T11:35:41.848Z,976.92
2019-03-22T11:36:41.871Z,976.89
2019-03-22T11:37:41.852Z,976.90
2019-03-22T11:38:41.889Z,976.91
2019-03-22T11:39:41.862Z,976.89
2019-03-22T11:40:41.875Z,976.85
2019-03-22T11:41:41.900Z,976.82
2019-03-22T11:42:41.909Z,976.80
2019-03-22T11:43:41.889Z,976.78
2019-03-22T11:44:41.914Z,976.74
2019-03-22T11:45:41.899Z,976.75
2019-03-22T11:46:41.904Z,976.76
2019-03-22T11:47:41.908Z,976.69
2019-03-22T11:48:41.912Z,976.74
2019-03-22T11:49:41.920Z,976.75
2019-03-22T11:50:41.929Z,976.70
2019-03-22T11:51:41.958Z,976.71
2019-03-22T11:52:41.950Z,976.67
2019-03-22T11:53:41.955Z,976.66
2019-03-22T11:54:41.947Z,976.69
2019-03-22T11:55:41.973Z,976.62
2019-03-22T11:56:41.955Z,976.63
2019-03-22T11:57:41.967Z,976.60
2019-03-22T11:58:41.978Z,976.60
2019-03-22T11:59:42.033Z,976.53
2019-03-22T12:00:41.982Z,976.53
2019-03-22T12:01:41.980Z,976.54
2019-03-22T12:02:42.000Z,976.53
2019-03-22T12:03:41.991Z,976.52
2019-03-22T12:04:41.998Z,976.51
2019-03-22T12:05:42.024Z,976.53
2019-03-22T12:06:42.013Z,976.50
2019-03-22T12:07:42.015Z,976.50
2019-03-22T12:08:42.615Z,976.47
2019-03-22T12:09:43.489Z,976.43
2019-03-22T12:10:43.492Z,976.49
2019-03-22T12:11:45.017Z,976.47
2019-03-22T12:12:43.094Z,976.42
2019-03-22T12:14:42.354Z,976.38
2019-03-22T12:15:42.298Z,976.40
2019-03-22T12:16:44.476Z,976.36
2019-03-22T12:25:52.863Z,976.21
2019-03-22T12:28:32.327Z,976.23
2019-03-22T12:30:32.585Z,976.18
2019-03-22T12:33:30.788Z,976.15
2019-03-22T12:35:52.473Z,976.10
2019-03-22T12:38:45.575Z,976.04
2019-03-22T12:41:26.204Z,976.02
2019-03-22T12:42:12.272Z,976.01
2019-03-22T12:44:05.784Z,976.02
2019-03-22T12:45:06.229Z,975.98
2019-03-22T12:46:59.146Z,975.97
2019-03-22T12:47:58.562Z,975.95
2019-03-22T12:49:51.479Z,975.92
2019-03-22T12:50:51.470Z,975.93
2019-03-22T12:52:45.631Z,975.90
2019-03-22T12:53:45.100Z,975.89
2019-03-22T12:54:45.248Z,975.90
2019-03-22T12:55:48.622Z,975.89
2019-03-22T12:56:45.817Z,975.85
2019-03-22T12:57:49.966Z,975.85
2019-03-22T12:59:31.265Z,975.83
2019-03-22T12:59:46.918Z,975.86
2019-03-22T13:00:54.428Z,975.80
2019-03-22T13:03:05.964Z,975.87
2019-03-22T13:03:52.500Z,975.89
2019-03-22T13:04:50.925Z,975.84
2019-03-22T13:12:41.907Z,975.81
2019-03-22T13:15:23.849Z,975.81
2019-03-22T13:18:06.382Z,975.69
2019-03-22T13:23:56.183Z,975.67
2019-03-22T13:26:27.935Z,975.54
2019-03-22T13:28:26.637Z,975.57
2019-03-22T13:29:20.603Z,975.53
2019-03-22T13:31:35.370Z,975.48
2019-03-22T13:32:25.327Z,975.49
2019-03-22T13:33:22.582Z,975.46
2019-03-22T13:35:16.842Z,975.46
2019-03-22T13:37:17.957Z,975.45
2019-03-22T13:38:24.814Z,975.48
2019-03-22T13:39:24.232Z,975.41
2019-03-22T13:44:58.062Z,975.42
2019-03-22T13:47:08.815Z,975.30
2019-03-22T13:47:56.856Z,975.32
2019-03-22T13:51:57.840Z,975.31
2019-03-22T13:52:57.217Z,975.29
2019-03-22T13:53:57.588Z,975.28
2019-03-22T13:54:57.616Z,975.22
2019-03-22T13:55:54.297Z,975.28
2019-03-22T13:56:53.813Z,975.26
2019-03-22T13:57:56.076Z,975.25
2019-03-22T13:59:05.579Z,975.24
2019-03-22T13:59:55.851Z,975.28
2019-03-22T14:00:54.133Z,975.27
2019-03-22T14:01:56.141Z,975.23
2019-03-22T14:03:02.094Z,975.23
2019-03-22T14:03:55.988Z,975.20
2019-03-22T14:07:55.824Z,975.18
2019-03-22T14:08:46.456Z,975.20
2019-03-22T14:11:01.605Z,975.05
2019-03-22T14:11:39.403Z,975.13
2019-03-22T14:13:56.474Z,975.18
2019-03-22T14:16:43.917Z,975.15
2019-03-22T14:19:36.159Z,975.15
2019-03-22T14:22:55.621Z,975.07
2019-03-22T14:27:59.169Z,975.04
2019-03-22T14:29:49.795Z,975.01
2019-03-22T14:30:48.282Z,974.99
2019-03-22T14:32:44.532Z,974.97
2019-03-22T14:34:59.243Z,974.92
2019-03-22T14:37:52.382Z,974.92
2019-03-22T14:38:49.421Z,974.92
2019-03-22T14:40:45.474Z,974.94
2019-03-22T14:41:39.579Z,974.92
2019-03-22T14:43:40.586Z,974.88
2019-03-22T14:45:58.230Z,974.88
2019-03-22T14:49:14.664Z,974.83
2019-03-22T14:49:44.639Z,974.90
2019-03-22T14:50:42.437Z,974.83
2019-03-22T14:51:50.296Z,974.80
2019-03-22T14:52:46.268Z,974.76
2019-03-22T14:53:40.000Z,974.77
2019-03-22T14:54:40.264Z,974.76
2019-03-22T14:55:56.973Z,974.73
2019-03-22T14:56:41.714Z,974.67
2019-03-22T14:57:48.969Z,974.70
2019-03-22T14:58:40.533Z,974.62
2019-03-22T15:01:58.007Z,974.58
2019-03-22T15:02:37.101Z,974.56
2019-03-22T15:04:38.755Z,974.53
2019-03-22T15:07:28.785Z,974.56
2019-03-22T15:08:24.473Z,974.47
2019-03-22T15:10:22.907Z,974.52
2019-03-22T15:13:15.577Z,974.52
2019-03-22T15:16:32.014Z,974.45
2019-03-22T15:19:28.092Z,974.44
2019-03-22T15:22:03.109Z,974.43